sensor_id;sensor_type;location;lat;lon;timestamp;pressure;altitude;pressure_sealevel;temperature;humidity
82668;BME280;72376;51.374;-0.176;2023-08-21T00:01:52;102013.54;;;15.93;61.20
82668;BME280;72376;51.374;-0.176;2023-08-21T00:04:17;102013.49;;;16.15;60.43
82668;BME280;72376;51.374;-0.176;2023-08-21T00:06:43;102009.09;;;15.84;60.71
82668;BME280;72376;51.374;-0.176;2023-08-21T00:09:08;102009.31;;;16.34;60.06
82668;BME280;72376;51.374;-0.176;2023-08-21T00:11:33;102010.76;;;15.58;61.63
82668;BME280;72376;51.374;-0.176;2023-08-21T00:13:59;102013.50;;;16.29;60.08
82668;BME280;72376;51.374;-0.176;2023-08-21T00:16:24;102010.68;;;16.04;60.71
82668;BME280;72376;51.374;-0.176;2023-08-21T00:18:49;102008.52;;;15.89;60.41
82668;BME280;72376;51.374;-0.176;2023-08-21T00:21:14;102007.40;;;16.58;59.42
82668;BME280;72376;51.374;-0.176;2023-08-21T00:23:40;102008.93;;;16.09;60.29
82668;BME280;72376;51.374;-0.176;2023-08-21T00:26:05;102009.93;;;15.86;60.97
82668;BME280;72376;51.374;-0.176;2023-08-21T00:28:37;102012.28;;;15.32;61.86
82668;BME280;72376;51.374;-0.176;2023-08-21T00:31:01;102007.94;;;16.19;60.10
82668;BME280;72376;51.374;-0.176;2023-08-21T00:33:26;102008.36;;;16.37;59.74
82668;BME280;72376;51.374;-0.176;2023-08-21T00:35:52;102005.06;;;15.38;60.78
82668;BME280;72376;51.374;-0.176;2023-08-21T00:38:12;102005.62;;;15.37;62.06
82668;BME280;72376;51.374;-0.176;2023-08-21T00:40:47;102004.86;;;14.82;62.96
82668;BME280;72376;51.374;-0.176;2023-08-21T00:43:08;102007.43;;;16.00;60.10
82668;BME280;72376;51.374;-0.176;2023-08-21T00:45:34;102011.49;;;15.94;60.76
82668;BME280;72376;51.374;-0.176;2023-08-21T00:47:53;102007.31;;;16.50;59.27
82668;BME280;72376;51.374;-0.176;2023-08-21T00:50:18;102004.57;;;15.99;59.41
82668;BME280;72376;51.374;-0.176;2023-08-21T00:52:45;102007.52;;;16.49;59.40
82668;BME280;72376;51.374;-0.176;2023-08-21T00:55:09;102004.48;;;16.28;59.75
82668;BME280;72376;51.374;-0.176;2023-08-21T00:57:34;102006.29;;;15.82;60.35
82668;BME280;72376;51.374;-0.176;2023-08-21T01:00:12;102002.12;;;16.75;58.72
82668;BME280;72376;51.374;-0.176;2023-08-21T01:02:25;102005.13;;;15.41;61.74
82668;BME280;72376;51.374;-0.176;2023-08-21T01:04:50;102002.06;;;16.08;59.68
82668;BME280;72376;51.374;-0.176;2023-08-21T01:07:16;102002.22;;;15.95;60.55
82668;BME280;72376;51.374;-0.176;2023-08-21T01:09:45;102006.98;;;15.31;62.06
82668;BME280;72376;51.374;-0.176;2023-08-21T01:12:18;102007.01;;;15.09;62.39
82668;BME280;72376;51.374;-0.176;2023-08-21T01:14:39;102006.72;;;15.96;60.51
82668;BME280;72376;51.374;-0.176;2023-08-21T01:17:00;102007.19;;;14.90;62.89
82668;BME280;72376;51.374;-0.176;2023-08-21T01:19:31;102007.11;;;16.15;60.14
82668;BME280;72376;51.374;-0.176;2023-08-21T01:21:49;102012.23;;;14.73;62.78
82668;BME280;72376;51.374;-0.176;2023-08-21T01:24:19;102016.02;;;15.10;62.54
82668;BME280;72376;51.374;-0.176;2023-08-21T01:26:43;102015.85;;;15.40;61.82
82668;BME280;72376;51.374;-0.176;2023-08-21T01:29:04;102017.99;;;15.33;62.02
82668;BME280;72376;51.374;-0.176;2023-08-21T01:31:36;102016.11;;;15.05;62.04
82668;BME280;72376;51.374;-0.176;2023-08-21T01:33:59;102012.54;;;16.52;59.16
82668;BME280;72376;51.374;-0.176;2023-08-21T01:36:20;102014.25;;;16.15;59.88
82668;BME280;72376;51.374;-0.176;2023-08-21T01:38:47;102015.79;;;16.34;58.76
82668;BME280;72376;51.374;-0.176;2023-08-21T01:41:11;102014.86;;;16.20;59.26
82668;BME280;72376;51.374;-0.176;2023-08-21T01:43:36;102011.21;;;16.90;57.15
82668;BME280;72376;51.374;-0.176;2023-08-21T01:46:02;102015.18;;;15.61;59.52
82668;BME280;72376;51.374;-0.176;2023-08-21T01:48:28;102012.74;;;16.30;58.90
82668;BME280;72376;51.374;-0.176;2023-08-21T01:50:58;102012.01;;;15.78;59.77
82668;BME280;72376;51.374;-0.176;2023-08-21T01:53:19;102014.65;;;15.43;60.81
82668;BME280;72376;51.374;-0.176;2023-08-21T01:55:43;102011.63;;;16.28;58.35
82668;BME280;72376;51.374;-0.176;2023-08-21T01:58:08;102011.28;;;16.79;57.79
82668;BME280;72376;51.374;-0.176;2023-08-21T02:00:34;102011.05;;;16.60;57.02
82668;BME280;72376;51.374;-0.176;2023-08-21T02:03:05;102018.98;;;16.01;59.53
82668;BME280;72376;51.374;-0.176;2023-08-21T02:05:26;102017.80;;;15.93;59.48
82668;BME280;72376;51.374;-0.176;2023-08-21T02:08:01;102022.56;;;15.72;59.95
82668;BME280;72376;51.374;-0.176;2023-08-21T02:10:17;102019.71;;;15.55;60.93
82668;BME280;72376;51.374;-0.176;2023-08-21T02:12:41;102023.41;;;15.43;61.68
82668;BME280;72376;51.374;-0.176;2023-08-21T02:15:07;102021.51;;;14.44;64.45
82668;BME280;72376;51.374;-0.176;2023-08-21T02:17:39;102022.16;;;15.34;63.22
82668;BME280;72376;51.374;-0.176;2023-08-21T02:20:02;102023.06;;;14.85;63.54
82668;BME280;72376;51.374;-0.176;2023-08-21T02:22:29;102024.87;;;14.84;64.10
82668;BME280;72376;51.374;-0.176;2023-08-21T02:24:54;102024.60;;;14.49;64.40
82668;BME280;72376;51.374;-0.176;2023-08-21T02:27:13;102023.18;;;14.91;62.28
82668;BME280;72376;51.374;-0.176;2023-08-21T02:29:43;102026.72;;;14.49;62.86
82668;BME280;72376;51.374;-0.176;2023-08-21T02:32:09;102024.46;;;16.05;59.41
82668;BME280;72376;51.374;-0.176;2023-08-21T02:34:29;102027.85;;;15.42;60.65
82668;BME280;72376;51.374;-0.176;2023-08-21T02:36:54;102025.14;;;14.94;61.64
82668;BME280;72376;51.374;-0.176;2023-08-21T02:39:19;102027.21;;;15.83;59.71
82668;BME280;72376;51.374;-0.176;2023-08-21T02:41:44;102025.76;;;15.61;59.58
82668;BME280;72376;51.374;-0.176;2023-08-21T02:44:09;102021.84;;;16.56;56.91
82668;BME280;72376;51.374;-0.176;2023-08-21T02:46:34;102021.73;;;16.37;57.74
82668;BME280;72376;51.374;-0.176;2023-08-21T02:49:00;102018.00;;;16.22;57.73
82668;BME280;72376;51.374;-0.176;2023-08-21T02:51:25;102019.40;;;15.97;57.84
82668;BME280;72376;51.374;-0.176;2023-08-21T02:53:50;102020.18;;;16.72;57.37
82668;BME280;72376;51.374;-0.176;2023-08-21T02:56:15;102023.42;;;15.64;59.17
82668;BME280;72376;51.374;-0.176;2023-08-21T02:58:41;102024.90;;;16.08;57.54
82668;BME280;72376;51.374;-0.176;2023-08-21T03:01:06;102029.49;;;15.28;59.23
82668;BME280;72376;51.374;-0.176;2023-08-21T03:03:33;102028.10;;;17.06;56.55
82668;BME280;72376;51.374;-0.176;2023-08-21T03:06:07;102030.76;;;15.68;58.45
82668;BME280;72376;51.374;-0.176;2023-08-21T03:08:22;102031.71;;;15.99;58.80
82668;BME280;72376;51.374;-0.176;2023-08-21T03:10:47;102029.00;;;16.10;58.77
82668;BME280;72376;51.374;-0.176;2023-08-21T03:13:18;102031.57;;;15.52;60.18
82668;BME280;72376;51.374;-0.176;2023-08-21T03:15:43;102034.14;;;14.58;64.37
82668;BME280;72376;51.374;-0.176;2023-08-21T03:18:04;102034.36;;;14.06;65.31
82668;BME280;72376;51.374;-0.176;2023-08-21T03:20:29;102035.81;;;14.94;62.31
82668;BME280;72376;51.374;-0.176;2023-08-21T03:22:54;102039.78;;;15.07;63.66
82668;BME280;72376;51.374;-0.176;2023-08-21T03:25:20;102038.62;;;14.24;66.39
82668;BME280;72376;51.374;-0.176;2023-08-21T03:27:50;102035.20;;;14.36;66.12
82668;BME280;72376;51.374;-0.176;2023-08-21T03:30:11;102031.10;;;15.12;63.07
82668;BME280;72376;51.374;-0.176;2023-08-21T03:32:40;102032.24;;;15.44;62.83
82668;BME280;72376;51.374;-0.176;2023-08-21T03:35:06;102035.15;;;14.65;64.14
82668;BME280;72376;51.374;-0.176;2023-08-21T03:37:31;102034.14;;;14.38;64.87
82668;BME280;72376;51.374;-0.176;2023-08-21T03:39:53;102036.13;;;14.72;64.67
82668;BME280;72376;51.374;-0.176;2023-08-21T03:42:27;102041.60;;;15.02;64.76
82668;BME280;72376;51.374;-0.176;2023-08-21T03:44:42;102039.39;;;15.30;63.34
82668;BME280;72376;51.374;-0.176;2023-08-21T03:47:12;102043.81;;;14.75;65.11
82668;BME280;72376;51.374;-0.176;2023-08-21T03:49:37;102039.50;;;14.76;65.15
82668;BME280;72376;51.374;-0.176;2023-08-21T03:51:58;102044.46;;;13.47;68.29
82668;BME280;72376;51.374;-0.176;2023-08-21T03:54:28;102040.82;;;14.97;65.00
82668;BME280;72376;51.374;-0.176;2023-08-21T03:56:48;102042.00;;;15.42;62.58
82668;BME280;72376;51.374;-0.176;2023-08-21T03:59:14;102048.27;;;15.23;63.91
82668;BME280;72376;51.374;-0.176;2023-08-21T04:01:39;102050.20;;;13.87;66.65
82668;BME280;72376;51.374;-0.176;2023-08-21T04:04:05;102048.70;;;15.03;63.94
82668;BME280;72376;51.374;-0.176;2023-08-21T04:06:35;102048.25;;;15.25;62.70
82668;BME280;72376;51.374;-0.176;2023-08-21T04:09:01;102051.11;;;14.74;63.90
82668;BME280;72376;51.374;-0.176;2023-08-21T04:11:21;102054.34;;;14.96;63.40
82668;BME280;72376;51.374;-0.176;2023-08-21T04:13:46;102057.26;;;15.68;61.37
82668;BME280;72376;51.374;-0.176;2023-08-21T04:16:12;102055.90;;;16.07;60.59
82668;BME280;72376;51.374;-0.176;2023-08-21T04:18:44;102056.29;;;15.48;61.50
82668;BME280;72376;51.374;-0.176;2023-08-21T04:21:05;102056.42;;;14.93;63.34
82668;BME280;72376;51.374;-0.176;2023-08-21T04:23:28;102055.29;;;15.18;63.83
82668;BME280;72376;51.374;-0.176;2023-08-21T04:25:53;102058.84;;;14.49;64.55
82668;BME280;72376;51.374;-0.176;2023-08-21T04:28:18;102058.55;;;14.79;64.22
82668;BME280;72376;51.374;-0.176;2023-08-21T04:30:45;102056.93;;;15.02;63.23
82668;BME280;72376;51.374;-0.176;2023-08-21T04:33:09;102058.81;;;15.58;61.93
82668;BME280;72376;51.374;-0.176;2023-08-21T04:35:40;102059.81;;;14.93;63.06
82668;BME280;72376;51.374;-0.176;2023-08-21T04:38:01;102062.25;;;16.21;60.43
82668;BME280;72376;51.374;-0.176;2023-08-21T04:40:31;102060.65;;;14.75;62.30
82668;BME280;72376;51.374;-0.176;2023-08-21T04:42:53;102063.49;;;15.26;61.51
82668;BME280;72376;51.374;-0.176;2023-08-21T04:45:18;102062.98;;;14.25;63.96
82668;BME280;72376;51.374;-0.176;2023-08-21T04:47:43;102062.34;;;15.22;61.64
82668;BME280;72376;51.374;-0.176;2023-08-21T04:50:09;102065.74;;;15.21;62.63
82668;BME280;72376;51.374;-0.176;2023-08-21T04:52:42;102061.71;;;15.66;61.84
82668;BME280;72376;51.374;-0.176;2023-08-21T04:55:00;102063.43;;;16.09;60.35
82668;BME280;72376;51.374;-0.176;2023-08-21T04:57:24;102063.42;;;15.58;62.06
82668;BME280;72376;51.374;-0.176;2023-08-21T04:59:55;102062.85;;;15.83;61.09
82668;BME280;72376;51.374;-0.176;2023-08-21T05:02:16;102059.42;;;15.94;60.19
82668;BME280;72376;51.374;-0.176;2023-08-21T05:04:40;102058.98;;;17.00;57.91
82668;BME280;72376;51.374;-0.176;2023-08-21T05:07:09;102059.78;;;17.09;57.50
82668;BME280;72376;51.374;-0.176;2023-08-21T05:09:31;102062.18;;;15.93;59.98
82668;BME280;72376;51.374;-0.176;2023-08-21T05:12:02;102060.99;;;16.19;59.39
82668;BME280;72376;51.374;-0.176;2023-08-21T05:14:32;102061.09;;;16.77;58.50
82668;BME280;72376;51.374;-0.176;2023-08-21T05:16:48;102066.61;;;15.71;60.46
82668;BME280;72376;51.374;-0.176;2023-08-21T05:19:13;102067.85;;;15.49;61.17
82668;BME280;72376;51.374;-0.176;2023-08-21T05:21:42;102068.37;;;15.85;60.09
82668;BME280;72376;51.374;-0.176;2023-08-21T05:24:02;102066.12;;;15.97;59.30
82668;BME280;72376;51.374;-0.176;2023-08-21T05:26:28;102068.60;;;16.05;59.43
82668;BME280;72376;51.374;-0.176;2023-08-21T05:28:52;102072.00;;;15.21;61.53
82668;BME280;72376;51.374;-0.176;2023-08-21T05:31:17;102075.15;;;15.84;60.02
82668;BME280;72376;51.374;-0.176;2023-08-21T05:33:43;102074.31;;;16.27;59.61
82668;BME280;72376;51.374;-0.176;2023-08-21T05:36:09;102079.72;;;16.44;59.87
82668;BME280;72376;51.374;-0.176;2023-08-21T05:38:34;102084.79;;;15.59;60.76
82668;BME280;72376;51.374;-0.176;2023-08-21T05:40:59;102084.80;;;15.88;60.01
82668;BME280;72376;51.374;-0.176;2023-08-21T05:43:25;102084.95;;;16.40;59.16
82668;BME280;72376;51.374;-0.176;2023-08-21T05:45:50;102088.09;;;16.10;59.00
82668;BME280;72376;51.374;-0.176;2023-08-21T05:48:16;102089.44;;;16.10;59.02
82668;BME280;72376;51.374;-0.176;2023-08-21T05:50:50;102098.92;;;15.82;59.95
82668;BME280;72376;51.374;-0.176;2023-08-21T05:53:11;102095.89;;;16.62;58.50
82668;BME280;72376;51.374;-0.176;2023-08-21T05:55:31;102103.45;;;15.28;61.46
82668;BME280;72376;51.374;-0.176;2023-08-21T05:57:57;102101.66;;;15.35;61.07
82668;BME280;72376;51.374;-0.176;2023-08-21T06:00:25;102105.16;;;15.92;59.73
82668;BME280;72376;51.374;-0.176;2023-08-21T06:02:47;102105.04;;;16.01;59.42
82668;BME280;72376;51.374;-0.176;2023-08-21T06:05:13;102101.43;;;16.37;58.45
82668;BME280;72376;51.374;-0.176;2023-08-21T06:07:38;102105.17;;;15.88;59.60
82668;BME280;72376;51.374;-0.176;2023-08-21T06:10:04;102102.31;;;15.63;60.13
82668;BME280;72376;51.374;-0.176;2023-08-21T06:12:40;102104.29;;;14.85;61.88
82668;BME280;72376;51.374;-0.176;2023-08-21T06:14:59;102106.49;;;15.04;61.59
82668;BME280;72376;51.374;-0.176;2023-08-21T06:17:24;102113.24;;;16.08;59.33
82668;BME280;72376;51.374;-0.176;2023-08-21T06:19:44;102111.42;;;15.29;62.51
82668;BME280;72376;51.374;-0.176;2023-08-21T06:22:14;102108.13;;;15.11;61.96
82668;BME280;72376;51.374;-0.176;2023-08-21T06:24:35;102113.32;;;15.71;61.03
82668;BME280;72376;51.374;-0.176;2023-08-21T06:27:00;102113.08;;;15.01;63.64
82668;BME280;72376;51.374;-0.176;2023-08-21T06:29:26;102116.85;;;15.84;61.28
82668;BME280;72376;51.374;-0.176;2023-08-21T06:31:51;102119.11;;;15.11;62.68
82668;BME280;72376;51.374;-0.176;2023-08-21T06:34:16;102117.67;;;15.02;63.85
82668;BME280;72376;51.374;-0.176;2023-08-21T06:36:41;102126.58;;;15.64;61.09
82668;BME280;72376;51.374;-0.176;2023-08-21T06:39:07;102124.79;;;15.32;61.88
82668;BME280;72376;51.374;-0.176;2023-08-21T06:41:37;102128.92;;;15.73;61.09
82668;BME280;72376;51.374;-0.176;2023-08-21T06:43:59;102129.12;;;16.37;58.72
82668;BME280;72376;51.374;-0.176;2023-08-21T06:46:28;102128.56;;;16.57;58.68
82668;BME280;72376;51.374;-0.176;2023-08-21T06:48:49;102125.23;;;16.55;59.31
82668;BME280;72376;51.374;-0.176;2023-08-21T06:51:18;102119.66;;;16.53;58.38
82668;BME280;72376;51.374;-0.176;2023-08-21T06:53:43;102121.84;;;16.11;58.98
82668;BME280;72376;51.374;-0.176;2023-08-21T06:56:04;102121.40;;;13.60;66.32
82668;BME280;72376;51.374;-0.176;2023-08-21T06:58:29;102123.19;;;15.92;59.99
82668;BME280;72376;51.374;-0.176;2023-08-21T07:00:54;102122.38;;;15.57;60.30
82668;BME280;72376;51.374;-0.176;2023-08-21T07:03:20;102127.98;;;16.58;58.97
82668;BME280;72376;51.374;-0.176;2023-08-21T07:06:02;102135.75;;;15.98;59.34
82668;BME280;72376;51.374;-0.176;2023-08-21T07:08:10;102138.38;;;16.45;58.50
82668;BME280;72376;51.374;-0.176;2023-08-21T07:10:37;102134.29;;;16.69;57.85
82668;BME280;72376;51.374;-0.176;2023-08-21T07:13:01;102135.93;;;15.09;62.65
82668;BME280;72376;51.374;-0.176;2023-08-21T07:15:26;102135.99;;;15.74;60.16
82668;BME280;72376;51.374;-0.176;2023-08-21T07:17:52;102139.75;;;16.25;58.97
82668;BME280;72376;51.374;-0.176;2023-08-21T07:20:30;102140.15;;;16.08;59.44
82668;BME280;72376;51.374;-0.176;2023-08-21T07:22:43;102141.13;;;16.15;59.69
82668;BME280;72376;51.374;-0.176;2023-08-21T07:25:09;102141.20;;;16.26;59.10
82668;BME280;72376;51.374;-0.176;2023-08-21T07:27:38;102138.15;;;16.17;59.93
82668;BME280;72376;51.374;-0.176;2023-08-21T07:30:05;102139.87;;;15.74;60.99
82668;BME280;72376;51.374;-0.176;2023-08-21T07:32:24;102138.00;;;14.76;62.46
82668;BME280;72376;51.374;-0.176;2023-08-21T07:34:52;102138.29;;;15.68;60.13
82668;BME280;72376;51.374;-0.176;2023-08-21T07:37:14;102140.90;;;16.26;58.70
82668;BME280;72376;51.374;-0.176;2023-08-21T07:39:40;102139.58;;;16.39;58.19
82668;BME280;72376;51.374;-0.176;2023-08-21T07:42:05;102139.62;;;16.31;57.83
82668;BME280;72376;51.374;-0.176;2023-08-21T07:44:30;102140.24;;;17.86;54.49
82668;BME280;72376;51.374;-0.176;2023-08-21T07:46:56;102140.95;;;17.83;53.95
82668;BME280;72376;51.374;-0.176;2023-08-21T07:49:21;102140.11;;;17.33;54.69
82668;BME280;72376;51.374;-0.176;2023-08-21T07:51:46;102141.82;;;17.24;54.44
82668;BME280;72376;51.374;-0.176;2023-08-21T07:54:12;102127.95;;;17.96;52.32
82668;BME280;72376;51.374;-0.176;2023-08-21T07:56:37;102123.04;;;19.17;49.64
82668;BME280;72376;51.374;-0.176;2023-08-21T07:59:03;102123.91;;;19.54;48.77
82668;BME280;72376;51.374;-0.176;2023-08-21T08:01:28;102123.57;;;18.52;50.08
82668;BME280;72376;51.374;-0.176;2023-08-21T08:03:58;102126.02;;;18.76;50.68
82668;BME280;72376;51.374;-0.176;2023-08-21T08:06:19;102124.40;;;18.75;50.68
82668;BME280;72376;51.374;-0.176;2023-08-21T08:08:44;102135.19;;;16.55;54.54
82668;BME280;72376;51.374;-0.176;2023-08-21T08:11:09;102129.95;;;18.36;51.77
82668;BME280;72376;51.374;-0.176;2023-08-21T08:13:39;102128.93;;;17.19;52.99
82668;BME280;72376;51.374;-0.176;2023-08-21T08:15:59;102123.98;;;18.78;50.27
82668;BME280;72376;51.374;-0.176;2023-08-21T08:18:25;102128.12;;;15.99;55.58
82668;BME280;72376;51.374;-0.176;2023-08-21T08:20:56;102122.50;;;18.20;51.28
82668;BME280;72376;51.374;-0.176;2023-08-21T08:23:21;102127.24;;;17.35;52.22
82668;BME280;72376;51.374;-0.176;2023-08-21T08:25:42;102126.76;;;18.09;51.50
82668;BME280;72376;51.374;-0.176;2023-08-21T08:28:16;102126.19;;;17.76;52.44
82668;BME280;72376;51.374;-0.176;2023-08-21T08:30:42;102123.53;;;17.74;52.94
82668;BME280;72376;51.374;-0.176;2023-08-21T08:33:03;102130.32;;;16.55;55.45
82668;BME280;72376;51.374;-0.176;2023-08-21T08:35:27;102133.73;;;16.36;55.55
82668;BME280;72376;51.374;-0.176;2023-08-21T08:37:48;102142.11;;;16.44;55.82
82668;BME280;72376;51.374;-0.176;2023-08-21T08:40:14;102137.59;;;17.90;52.62
82668;BME280;72376;51.374;-0.176;2023-08-21T08:42:39;102138.30;;;16.33;55.61
82668;BME280;72376;51.374;-0.176;2023-08-21T08:45:05;102132.94;;;17.72;52.95
82668;BME280;72376;51.374;-0.176;2023-08-21T08:47:31;102132.72;;;16.50;54.25
82668;BME280;72376;51.374;-0.176;2023-08-21T08:50:02;102131.19;;;16.79;53.46
82668;BME280;72376;51.374;-0.176;2023-08-21T08:52:20;102132.97;;;16.69;53.29
82668;BME280;72376;51.374;-0.176;2023-08-21T08:54:46;102132.81;;;16.23;54.06
82668;BME280;72376;51.374;-0.176;2023-08-21T08:57:15;102126.54;;;17.83;51.28
82668;BME280;72376;51.374;-0.176;2023-08-21T08:59:36;102128.91;;;17.12;52.19
82668;BME280;72376;51.374;-0.176;2023-08-21T09:02:02;102120.81;;;17.86;50.15
82668;BME280;72376;51.374;-0.176;2023-08-21T09:04:26;102119.78;;;17.20;51.13
82668;BME280;72376;51.374;-0.176;2023-08-21T09:09:22;102106.88;;;18.20;49.01
82668;BME280;72376;51.374;-0.176;2023-08-21T09:11:43;102103.97;;;18.42;47.70
82668;BME280;72376;51.374;-0.176;2023-08-21T09:14:12;102108.77;;;19.58;45.86
82668;BME280;72376;51.374;-0.176;2023-08-21T09:16:37;102102.94;;;19.83;45.39
82668;BME280;72376;51.374;-0.176;2023-08-21T09:19:03;102101.69;;;20.05;45.49
82668;BME280;72376;51.374;-0.176;2023-08-21T09:21:33;102102.91;;;19.38;46.11
82668;BME280;72376;51.374;-0.176;2023-08-21T09:23:58;102100.86;;;18.93;47.82
82668;BME280;72376;51.374;-0.176;2023-08-21T09:26:19;102102.92;;;20.76;44.32
82668;BME280;72376;51.374;-0.176;2023-08-21T09:28:39;102102.66;;;19.68;46.01
82668;BME280;72376;51.374;-0.176;2023-08-21T09:31:04;102097.74;;;18.72;48.45
82668;BME280;72376;51.374;-0.176;2023-08-21T09:33:30;102109.15;;;17.16;51.28
82668;BME280;72376;51.374;-0.176;2023-08-21T09:35:56;102105.77;;;17.78;50.62
82668;BME280;72376;51.374;-0.176;2023-08-21T09:38:21;102105.57;;;18.90;48.58
82668;BME280;72376;51.374;-0.176;2023-08-21T09:40:53;102104.73;;;18.04;49.60
82668;BME280;72376;51.374;-0.176;2023-08-21T09:43:11;102104.73;;;17.64;50.45
82668;BME280;72376;51.374;-0.176;2023-08-21T09:45:46;102109.48;;;17.36;52.00
82668;BME280;72376;51.374;-0.176;2023-08-21T09:48:07;102108.62;;;18.37;49.34
82668;BME280;72376;51.374;-0.176;2023-08-21T09:50:29;102105.05;;;19.71;46.91
82668;BME280;72376;51.374;-0.176;2023-08-21T09:52:54;102106.13;;;20.33;45.80
82668;BME280;72376;51.374;-0.176;2023-08-21T09:55:18;102110.00;;;18.76;47.44
82668;BME280;72376;51.374;-0.176;2023-08-21T09:57:49;102100.42;;;20.91;44.90
82668;BME280;72376;51.374;-0.176;2023-08-21T10:00:14;102098.91;;;21.23;44.82
82668;BME280;72376;51.374;-0.176;2023-08-21T10:02:39;102096.02;;;19.30;45.93
82668;BME280;72376;51.374;-0.176;2023-08-21T10:05:00;102096.58;;;19.10;47.10
82668;BME280;72376;51.374;-0.176;2023-08-21T10:07:29;102093.63;;;19.25;45.47
82668;BME280;72376;51.374;-0.176;2023-08-21T10:09:55;102089.70;;;18.12;48.50
82668;BME280;72376;51.374;-0.176;2023-08-21T10:12:17;102086.96;;;18.09;47.88
82668;BME280;72376;51.374;-0.176;2023-08-21T10:14:41;102087.07;;;18.57;47.62
82668;BME280;72376;51.374;-0.176;2023-08-21T10:17:07;102087.85;;;19.19;47.25
82668;BME280;72376;51.374;-0.176;2023-08-21T10:19:31;102094.22;;;18.76;47.86
82668;BME280;72376;51.374;-0.176;2023-08-21T10:21:57;102086.96;;;20.15;44.79
82668;BME280;72376;51.374;-0.176;2023-08-21T10:24:27;102088.49;;;19.63;46.11
82668;BME280;72376;51.374;-0.176;2023-08-21T10:26:47;102088.84;;;19.68;45.23
82668;BME280;72376;51.374;-0.176;2023-08-21T10:29:18;102081.01;;;19.03;46.69
82668;BME280;72376;51.374;-0.176;2023-08-21T10:31:43;102081.97;;;19.03;46.74
82668;BME280;72376;51.374;-0.176;2023-08-21T10:34:04;102083.43;;;19.01;45.55
82668;BME280;72376;51.374;-0.176;2023-08-21T10:36:39;102085.00;;;18.20;48.45
82668;BME280;72376;51.374;-0.176;2023-08-21T10:39:00;102080.11;;;18.79;47.07
82668;BME280;72376;51.374;-0.176;2023-08-21T10:41:26;102078.30;;;19.41;45.94
82668;BME280;72376;51.374;-0.176;2023-08-21T10:43:51;102083.17;;;19.30;45.86
82668;BME280;72376;51.374;-0.176;2023-08-21T10:46:11;102078.80;;;18.97;47.14
82668;BME280;72376;51.374;-0.176;2023-08-21T10:48:36;102076.69;;;18.75;46.95
82668;BME280;72376;51.374;-0.176;2023-08-21T10:51:02;102077.03;;;18.75;46.97
82668;BME280;72376;51.374;-0.176;2023-08-21T10:53:26;102072.18;;;19.89;44.89
82668;BME280;72376;51.374;-0.176;2023-08-21T10:55:53;102075.18;;;19.98;44.57
82668;BME280;72376;51.374;-0.176;2023-08-21T10:58:22;102073.19;;;19.81;45.04
82668;BME280;72376;51.374;-0.176;2023-08-21T11:00:42;102074.82;;;20.55;44.32
82668;BME280;72376;51.374;-0.176;2023-08-21T11:03:08;102071.06;;;22.30;40.77
82668;BME280;72376;51.374;-0.176;2023-08-21T11:05:43;102063.50;;;22.70;39.47
82668;BME280;72376;51.374;-0.176;2023-08-21T11:08:03;102057.26;;;23.55;37.25
82668;BME280;72376;51.374;-0.176;2023-08-21T11:10:24;102051.48;;;25.95;34.46
82668;BME280;72376;51.374;-0.176;2023-08-21T11:12:51;102048.37;;;24.96;35.31
82668;BME280;72376;51.374;-0.176;2023-08-21T11:15:26;102047.81;;;24.23;36.11
82668;BME280;72376;51.374;-0.176;2023-08-21T11:17:55;102048.81;;;24.93;35.20
82668;BME280;72376;51.374;-0.176;2023-08-21T11:20:06;102049.83;;;25.74;34.09
82668;BME280;72376;51.374;-0.176;2023-08-21T11:22:37;102056.08;;;23.21;37.71
82668;BME280;72376;51.374;-0.176;2023-08-21T11:24:56;102056.73;;;22.25;39.78
82668;BME280;72376;51.374;-0.176;2023-08-21T11:27:21;102057.28;;;21.73;40.02
82668;BME280;72376;51.374;-0.176;2023-08-21T11:29:49;102056.80;;;22.10;39.98
82668;BME280;72376;51.374;-0.176;2023-08-21T11:32:19;102043.19;;;22.64;38.07
82668;BME280;72376;51.374;-0.176;2023-08-21T11:34:43;102047.33;;;22.98;37.79
82668;BME280;72376;51.374;-0.176;2023-08-21T11:37:03;102043.52;;;21.89;40.96
82668;BME280;72376;51.374;-0.176;2023-08-21T11:39:41;102030.86;;;24.57;36.60
82668;BME280;72376;51.374;-0.176;2023-08-21T11:41:58;102029.71;;;25.11;35.65
82668;BME280;72376;51.374;-0.176;2023-08-21T11:44:18;102031.74;;;24.18;36.57
82668;BME280;72376;51.374;-0.176;2023-08-21T11:46:43;102033.57;;;25.08;34.69
82668;BME280;72376;51.374;-0.176;2023-08-21T11:49:14;102024.52;;;27.18;32.44
82668;BME280;72376;51.374;-0.176;2023-08-21T11:51:38;102020.58;;;28.60;29.94
82668;BME280;72376;51.374;-0.176;2023-08-21T11:54:04;102028.48;;;25.73;33.37
82668;BME280;72376;51.374;-0.176;2023-08-21T11:56:38;102015.58;;;28.99;30.02
82668;BME280;72376;51.374;-0.176;2023-08-21T11:58:50;102019.14;;;27.77;30.50
82668;BME280;72376;51.374;-0.176;2023-08-21T12:01:17;102026.61;;;24.65;34.92
82668;BME280;72376;51.374;-0.176;2023-08-21T12:03:40;102016.94;;;28.71;29.55
82668;BME280;72376;51.374;-0.176;2023-08-21T12:06:06;102019.26;;;30.29;27.59
82668;BME280;72376;51.374;-0.176;2023-08-21T12:08:31;102009.19;;;30.32;26.63
82668;BME280;72376;51.374;-0.176;2023-08-21T12:10:56;102014.16;;;29.59;27.82
82668;BME280;72376;51.374;-0.176;2023-08-21T12:13:27;102010.82;;;28.12;29.07
82668;BME280;72376;51.374;-0.176;2023-08-21T12:15:47;101999.25;;;27.20;29.82
82668;BME280;72376;51.374;-0.176;2023-08-21T12:18:13;102003.93;;;28.67;29.85
82668;BME280;72376;51.374;-0.176;2023-08-21T12:20:48;102001.22;;;29.01;29.65
82668;BME280;72376;51.374;-0.176;2023-08-21T12:23:04;101997.75;;;28.07;29.05
82668;BME280;72376;51.374;-0.176;2023-08-21T12:25:33;101994.30;;;30.69;26.77
82668;BME280;72376;51.374;-0.176;2023-08-21T12:27:54;101997.24;;;30.29;27.51
82668;BME280;72376;51.374;-0.176;2023-08-21T12:30:25;101994.70;;;28.63;28.54
82668;BME280;72376;51.374;-0.176;2023-08-21T12:32:44;101994.55;;;27.84;29.60